Explora — IXWQ — position and weather

sailwx.info

Track history (hours):
 
Tides and Currents Weather Stations Pressure Air Temp Water Temp Dewpoint Dewpoint Depression Visibility Wind Speed Wind Dir Waves Ship Positions

Oceanographic research ship Explora (Italy)

Detailed information on ship capabilities available from University of Delaware's Ocean Information Center.

Last reported at 2018-Mar-11 14:13 UTC. Time now 2018-Apr-23 19:08 UTC.
Position N 37°35' E 016°31'.
Warning: this ship's position is 43 days out of date.

Length 73 m; draft 5.5 m.

Type: Dredging. MMSI: 247028700.

Date/timePositionNaut miles runAvg speedWind from/ knotsBaromVisibWave heightAir tempDewpointWater temp
2018-Mar-11 14:13N 37°35' E 016°31'310.7
2018-Mar-11 13:58N 37°36' E 016°28'510.6
2018-Mar-11 13:30N 37°38' E 016°23'610.8
2018-Mar-11 12:55N 37°41' E 016°15'510.9
2018-Mar-11 12:30N 37°43' E 016°10'611.0
2018-Mar-11 11:58N 37°45' E 016°03'510.7
2018-Mar-11 11:29N 37°47' E 015°57'510.4
2018-Mar-11 11:00N 37°49' E 015°51'510.3
2018-Mar-11 10:30N 37°51' E 015°45'510.3
2018-Mar-11 10:00N 37°53' E 015°39'7 8.7
2018-Mar-11 09:08N 37°58' E 015°33'1 9.9
2018-Mar-11 08:59N 37°60' E 015°33'510.0
2018-Mar-11 08:30N 38°05' E 015°34'5 9.9
2018-Mar-11 08:00N 38°09' E 015°35'7 9.6
2018-Mar-11 07:13N 38°16' E 015°40'210.2
2018-Mar-11 07:00N 38°18' E 015°41'510.0
2018-Mar-11 06:30N 38°23' E 015°38'510.0
2018-Mar-11 06:00N 38°27' E 015°35'510.3
2018-Mar-11 05:30N 38°32' E 015°32'610.8
2018-Mar-11 04:57N 38°37' E 015°29'1310.3
2018-Mar-11 03:42N 38°49' E 015°22'3610.3
2018-Mar-11 00:11N 39°22' E 015°03'2610.1
2018-Mar-10 21:37N 39°45' E 014°48'710.1
2018-Mar-10 20:53N 39°52' E 014°44'410.0
2018-Mar-10 20:29N 39°55' E 014°42'2210.1
2018-Mar-10 18:16N 40°15' E 014°29'310.3
2018-Mar-10 18:00N 40°18' E 014°28'510.5
2018-Mar-10 17:30N 40°23' E 014°25'510.4
2018-Mar-10 17:00N 40°27' E 014°22'610.2
2018-Mar-10 16:23N 40°33' E 014°18'4 9.9
2018-Mar-10 16:00N 40°36' E 014°15'510.3
2018-Mar-10 15:30N 40°41' E 014°12'5 9.9
2018-Mar-10 15:00N 40°45' E 014°09'5 9.4
2018-Mar-10 14:30N 40°49' E 014°06'0 0.4
2018-Mar-10 13:31N 40°49' E 014°07'0 0.0
2018-Mar-10 13:28N 40°49' E 014°07'0 0.0
2018-Mar-10 12:49N 40°49' E 014°07'0 0.0
2018-Mar-10 08:48N 40°49' E 014°07'0 0.0
2018-Mar-10 08:24N 40°49' E 014°07'0 0.0
2018-Mar-10 08:00N 40°49' E 014°07'0 0.0
2018-Mar-10 07:27N 40°49' E 014°07'0 0.0
2018-Mar-10 06:57N 40°49' E 014°07'0 0.0
2018-Mar-10 06:27N 40°49' E 014°07'0 0.0
2018-Mar-10 06:00N 40°49' E 014°07'0 0.0
2018-Mar-10 05:30N 40°49' E 014°07'0 0.0
2018-Mar-10 05:00N 40°49' E 014°07'0 0.0
2018-Mar-10 04:30N 40°49' E 014°07'0 0.0
2018-Mar-10 04:00N 40°49' E 014°07'0 0.0
2018-Mar-10 03:30N 40°49' E 014°07'0 0.0
2018-Mar-10 03:00N 40°49' E 014°07'0 0.0
2018-Mar-10 02:30N 40°49' E 014°07'0 0.0
2018-Mar-10 01:57N 40°49' E 014°07'0 0.0
2018-Mar-10 01:30N 40°49' E 014°07'0 0.0
2018-Mar-10 01:00N 40°49' E 014°07'0 0.0
2018-Mar-10 00:27N 40°49' E 014°07'0 0.0
2018-Mar-10 00:00N 40°49' E 014°07'0 0.0
2018-Mar-09 23:30N 40°49' E 014°07'0 0.0
2018-Mar-09 23:00N 40°49' E 014°07'0 0.0
2018-Mar-09 22:30N 40°49' E 014°07'0 0.0
2018-Mar-09 21:57N 40°49' E 014°07'0 0.0
2018-Mar-09 21:30N 40°49' E 014°07'0 0.0
2018-Mar-09 20:57N 40°49' E 014°07'0 0.0
2018-Mar-09 20:30N 40°49' E 014°07'0 0.0
2018-Mar-09 20:00N 40°49' E 014°07'0 0.0
2018-Mar-09 18:12N 40°49' E 014°07'0 0.0
2018-Mar-09 16:15N 40°49' E 014°07'0 0.0
2018-Mar-09 15:57N 40°49' E 014°07'0 0.0
2018-Mar-09 15:30N 40°49' E 014°07'0 0.0
2018-Mar-09 15:00N 40°49' E 014°07'0 0.0
2018-Mar-09 14:21N 40°49' E 014°07'0 0.0
2018-Mar-09 14:00N 40°49' E 014°07'0 0.0
2018-Mar-09 13:12N 40°49' E 014°07'0 0.0
2018-Mar-09 12:57N 40°49' E 014°07'0 0.0
2018-Mar-09 12:18N 40°49' E 014°07'0 0.0
2018-Mar-09 12:00N 40°49' E 014°07'0 0.0
2018-Mar-09 10:33N 40°49' E 014°07'0 0.0
2018-Mar-09 10:30N 40°49' E 014°07'0 0.0
2018-Mar-09 09:48N 40°49' E 014°07'0 0.0
2018-Mar-09 09:24N 40°49' E 014°07'0 0.0
2018-Mar-09 09:00N 40°49' E 014°07'0 0.0
2018-Mar-09 08:12N 40°49' E 014°07'0 0.0
2018-Mar-09 07:57N 40°49' E 014°07'0 0.0
2018-Mar-09 07:24N 40°49' E 014°07'0 0.0
2018-Mar-09 06:51N 40°49' E 014°07'0 0.0
2018-Mar-09 06:30N 40°49' E 014°07'0 0.0
2018-Mar-09 06:00N 40°49' E 014°07'0 0.0
2018-Mar-09 05:24N 40°49' E 014°07'0 0.0
2018-Mar-09 05:00N 40°49' E 014°07'0 0.0
2018-Mar-09 04:30N 40°49' E 014°07'0 0.0
2018-Mar-09 03:57N 40°49' E 014°07'0 0.0
2018-Mar-09 03:30N 40°49' E 014°07'0 0.0
2018-Mar-09 03:00N 40°49' E 014°07'0 0.0
2018-Mar-09 02:27N 40°49' E 014°07'0 0.0
2018-Mar-09 01:57N 40°49' E 014°07'0 0.0
2018-Mar-09 01:27N 40°49' E 014°07'0 0.0
2018-Mar-09 01:00N 40°49' E 014°07'0 0.0
2018-Mar-09 00:30N 40°49' E 014°07'0 0.0
2018-Mar-09 00:00N 40°49' E 014°07'0 0.0
2018-Mar-08 23:29N 40°49' E 014°07'0 0.0
2018-Mar-08 22:59N 40°49' E 014°07'0 0.0
2018-Mar-08 22:29N 40°49' E 014°07'0 0.0
2018-Mar-08 21:59N 40°49' E 014°07'0 0.0
2018-Mar-08 21:29N 40°49' E 014°07'0 0.0
2018-Mar-08 20:59N 40°49' E 014°07'0 0.0
2018-Mar-08 20:23N 40°49' E 014°07'0 0.0
2018-Mar-07 05:34N 40°49' E 014°07'0 0.0
2018-Mar-07 05:22N 40°49' E 014°07'0 0.0
2018-Mar-07 04:52N 40°49' E 014°07'0 0.0
2018-Mar-06 23:37N 40°49' E 014°07'0 0.0
2018-Mar-06 23:28N 40°49' E 014°07'0 0.0
2018-Mar-06 22:55N 40°49' E 014°07'0 0.0
2018-Mar-06 21:52N 40°49' E 014°07'0 0.0
2018-Mar-06 21:22N 40°49' E 014°07'0 0.0
2018-Mar-06 20:58N 40°49' E 014°07'0 0.0
2018-Mar-06 20:28N 40°49' E 014°07'0 0.0
2018-Mar-06 19:46N 40°49' E 014°07'0 0.0
2018-Mar-06 19:28N 40°49' E 014°07'0 0.0
2018-Mar-06 18:58N 40°49' E 014°07'0 0.0
2018-Mar-06 16:28N 40°49' E 014°07'0 0.0
2018-Mar-06 15:55N 40°49' E 014°07'0 0.0
2018-Mar-06 15:22N 40°49' E 014°07'0 0.0
2018-Mar-06 14:58N 40°49' E 014°07'0 0.0
2018-Mar-06 14:28N 40°49' E 014°07'0 0.0
2018-Mar-06 13:37N 40°49' E 014°07'0 0.0
2018-Mar-06 13:28N 40°49' E 014°07'0 0.0
2018-Mar-06 07:04N 40°49' E 014°07'0 0.0
2018-Mar-06 06:49N 40°49' E 014°07'0 0.0
2018-Mar-06 06:28N 40°49' E 014°07'0 0.0
2018-Mar-06 05:58N 40°49' E 014°07'0 0.0
2018-Mar-06 04:43N 40°49' E 014°07'0 0.0
2018-Mar-06 03:34N 40°49' E 014°07'0 0.1
2018-Mar-06 03:31N 40°49' E 014°07'0 0.0
2018-Mar-06 02:58N 40°49' E 014°07'0 0.0
2018-Mar-05 14:51N 40°49' E 014°07'0 0.0
2018-Mar-05 14:21N 40°49' E 014°07'0 0.0
2018-Mar-05 13:51N 40°49' E 014°07'0 0.0
2018-Mar-05 13:24N 40°49' E 014°07'0 0.0
2018-Mar-05 12:39N 40°49' E 014°07'0 0.0
2018-Mar-05 11:48N 40°49' E 014°07'0 0.0
2018-Mar-05 11:21N 40°49' E 014°07'0 0.0
2018-Mar-04 22:03N 40°49' E 014°07'0 0.1
2018-Mar-04 22:00N 40°49' E 014°07'0 0.0
2018-Mar-04 21:24N 40°49' E 014°07'0 0.0
2018-Mar-04 21:00N 40°49' E 014°07'0 0.0
2018-Mar-04 20:27N 40°49' E 014°07'0 0.0
2018-Mar-04 20:00N 40°49' E 014°07'0 0.0
2018-Mar-04 17:45N 40°49' E 014°07'0 0.0
2018-Mar-04 17:06N 40°49' E 014°07'0 0.0
2018-Mar-04 16:36N 40°49' E 014°07'0 0.0
2018-Mar-04 13:17N 40°49' E 014°07'0 0.0
2018-Mar-04 07:23N 40°49' E 014°07'0 0.0
2018-Mar-04 06:53N 40°49' E 014°07'0 0.0
2018-Mar-04 06:26N 40°49' E 014°07'0 0.0
2018-Mar-04 05:59N 40°49' E 014°07'0 0.0
2018-Mar-04 05:29N 40°49' E 014°07'0 0.0
2018-Mar-04 04:59N 40°49' E 014°07'0 0.0
2018-Mar-04 04:26N 40°49' E 014°07'0 0.0
2018-Mar-04 03:59N 40°49' E 014°07'0 0.0
2018-Mar-04 03:29N 40°49' E 014°07'0 0.0
2018-Mar-04 02:59N 40°49' E 014°07'0 0.0
2018-Mar-04 02:29N 40°49' E 014°07'0 0.0
2018-Mar-04 01:59N 40°49' E 014°07'0 0.0
2018-Mar-04 01:29N 40°49' E 014°07'0 0.0
2018-Mar-04 00:59N 40°49' E 014°07'0 0.0
2018-Mar-04 00:26N 40°49' E 014°07'0 0.0
2018-Mar-03 23:56N 40°49' E 014°07'0 0.0
2018-Mar-03 22:29N 40°49' E 014°07'0 0.0
2018-Mar-03 21:59N 40°49' E 014°07'0 0.0
2018-Mar-03 21:29N 40°49' E 014°07'0 0.0
2018-Mar-03 20:59N 40°49' E 014°07'0 0.0
2018-Mar-03 20:29N 40°49' E 014°07'0 0.0
2018-Mar-03 19:59N 40°49' E 014°07'0 0.0
2018-Mar-03 19:29N 40°49' E 014°07'0 0.0
2018-Mar-03 18:56N 40°49' E 014°07'0 0.0
2018-Mar-03 07:23N 40°49' E 014°07'0 0.0
2018-Mar-03 06:59N 40°49' E 014°07'0 0.0
2018-Mar-03 06:26N 40°49' E 014°07'0 0.0
2018-Mar-03 05:59N 40°49' E 014°07'0 0.0
2018-Mar-03 05:26N 40°49' E 014°07'0 0.0
2018-Mar-03 04:59N 40°49' E 014°07'0 0.0
2018-Mar-03 04:29N 40°49' E 014°07'0 0.0
2018-Mar-03 03:56N 40°49' E 014°07'0 0.0
2018-Mar-03 03:29N 40°49' E 014°07'0 0.0
2018-Mar-03 02:58N 40°49' E 014°07'0 0.0
2018-Mar-03 02:25N 40°49' E 014°07'0 0.0
2018-Mar-03 01:58N 40°49' E 014°07'0 0.0
2018-Mar-03 01:25N 40°49' E 014°07'0 0.0
2018-Mar-03 00:55N 40°49' E 014°07'0 0.0
2018-Mar-03 00:25N 40°49' E 014°07'0 0.0
2018-Mar-02 23:58N 40°49' E 014°07'0 0.0
2018-Mar-02 23:28N 40°49' E 014°07'0 0.0
2018-Mar-02 22:55N 40°49' E 014°07'0 0.0
2018-Mar-02 22:28N 40°49' E 014°07'0 0.0
2018-Mar-02 21:58N 40°49' E 014°07'0 0.0
2018-Mar-02 21:28N 40°49' E 014°07'0 0.0
2018-Mar-02 20:58N 40°49' E 014°07'0 0.0
2018-Mar-02 20:25N 40°49' E 014°07'0 0.0
2018-Mar-02 19:58N 40°49' E 014°07'0 0.0
2018-Mar-02 19:25N 40°49' E 014°07'0 0.0
2018-Mar-02 06:34N 40°49' E 014°07'0 0.0
2018-Mar-02 06:28N 40°49' E 014°07'0 0.0
2018-Mar-02 05:58N 40°49' E 014°07'0 0.0
2018-Mar-02 05:22N 40°49' E 014°07'0 0.0
2018-Mar-02 04:58N 40°49' E 014°07'0 0.0
2018-Mar-02 04:28N 40°49' E 014°07'0 0.0
2018-Mar-02 03:55N 40°49' E 014°07'0 0.0
2018-Mar-02 03:28N 40°49' E 014°07'0 0.0
2018-Mar-02 02:58N 40°49' E 014°07'0 0.0
2018-Mar-02 02:28N 40°49' E 014°07'0 0.0
2018-Mar-02 01:58N 40°49' E 014°07'0 0.0
2018-Mar-02 01:28N 40°49' E 014°07'0 0.0
2018-Mar-02 00:58N 40°49' E 014°07'0 0.0
2018-Mar-02 00:28N 40°49' E 014°07'0 0.0
2018-Mar-01 23:58N 40°49' E 014°07'0 0.0
2018-Mar-01 23:28N 40°49' E 014°07'0 0.0
2018-Mar-01 22:58N 40°49' E 014°07'0 0.0
2018-Mar-01 22:28N 40°49' E 014°07'0 0.0
2018-Mar-01 21:55N 40°49' E 014°07'0 0.0
2018-Mar-01 21:25N 40°49' E 014°07'0 0.0
2018-Mar-01 20:58N 40°49' E 014°07'0 0.0
2018-Mar-01 20:28N 40°49' E 014°07'0 0.0
2018-Mar-01 19:55N 40°49' E 014°07'0 0.0
2018-Mar-01 19:19N 40°49' E 014°07'0 0.0
2018-Mar-01 18:07N 40°49' E 014°07'0 0.0
2018-Mar-01 16:54N 40°49' E 014°07'0 0.0
2018-Mar-01 16:12N 40°49' E 014°07'0 0.0
2018-Mar-01 15:48N 40°49' E 014°07'0 0.0
2018-Mar-01 15:24N 40°49' E 014°07'0 0.0
2018-Mar-01 15:00N 40°49' E 014°07'0 0.0
2018-Mar-01 14:27N 40°49' E 014°07'  
Track history (hours):
 
Tides and Currents Weather Stations Pressure Air Temp Water Temp Dewpoint Dewpoint Depression Visibility Wind Speed Wind Dir Waves Ship Positions

Oceanographic research ship Explora (Italy)

Detailed information on ship capabilities available from University of Delaware's Ocean Information Center.

Last reported at 2018-Mar-11 14:13 UTC. Time now 2018-Apr-23 19:08 UTC.
Position N 37°35' E 016°31'.
Warning: this ship's position is 43 days out of date.

Length 73 m; draft 5.5 m.

Type: Dredging. MMSI: 247028700.

Date/timePositionNaut miles runAvg speedWind from/ knotsBaromVisibWave heightAir tempDewpointWater temp
2018-Mar-11 14:13N 37°35' E 016°31'310.7
2018-Mar-11 13:58N 37°36' E 016°28'510.6
2018-Mar-11 13:30N 37°38' E 016°23'610.8
2018-Mar-11 12:55N 37°41' E 016°15'510.9
2018-Mar-11 12:30N 37°43' E 016°10'611.0
2018-Mar-11 11:58N 37°45' E 016°03'510.7
2018-Mar-11 11:29N 37°47' E 015°57'510.4
2018-Mar-11 11:00N 37°49' E 015°51'510.3
2018-Mar-11 10:30N 37°51' E 015°45'510.3
2018-Mar-11 10:00N 37°53' E 015°39'7 8.7
2018-Mar-11 09:08N 37°58' E 015°33'1 9.9
2018-Mar-11 08:59N 37°60' E 015°33'510.0
2018-Mar-11 08:30N 38°05' E 015°34'5 9.9
2018-Mar-11 08:00N 38°09' E 015°35'7 9.6
2018-Mar-11 07:13N 38°16' E 015°40'210.2
2018-Mar-11 07:00N 38°18' E 015°41'510.0
2018-Mar-11 06:30N 38°23' E 015°38'510.0
2018-Mar-11 06:00N 38°27' E 015°35'510.3
2018-Mar-11 05:30N 38°32' E 015°32'610.8
2018-Mar-11 04:57N 38°37' E 015°29'1310.3
2018-Mar-11 03:42N 38°49' E 015°22'3610.3
2018-Mar-11 00:11N 39°22' E 015°03'2610.1
2018-Mar-10 21:37N 39°45' E 014°48'710.1
2018-Mar-10 20:53N 39°52' E 014°44'410.0
2018-Mar-10 20:29N 39°55' E 014°42'2210.1
2018-Mar-10 18:16N 40°15' E 014°29'310.3
2018-Mar-10 18:00N 40°18' E 014°28'510.5
2018-Mar-10 17:30N 40°23' E 014°25'510.4
2018-Mar-10 17:00N 40°27' E 014°22'610.2
2018-Mar-10 16:23N 40°33' E 014°18'4 9.9
2018-Mar-10 16:00N 40°36' E 014°15'510.3
2018-Mar-10 15:30N 40°41' E 014°12'5 9.9
2018-Mar-10 15:00N 40°45' E 014°09'5 9.4
2018-Mar-10 14:30N 40°49' E 014°06'0 0.4
2018-Mar-10 13:31N 40°49' E 014°07'0 0.0
2018-Mar-10 13:28N 40°49' E 014°07'0 0.0
2018-Mar-10 12:49N 40°49' E 014°07'0 0.0
2018-Mar-10 08:48N 40°49' E 014°07'0 0.0
2018-Mar-10 08:24N 40°49' E 014°07'0 0.0
2018-Mar-10 08:00N 40°49' E 014°07'0 0.0
2018-Mar-10 07:27N 40°49' E 014°07'0 0.0
2018-Mar-10 06:57N 40°49' E 014°07'0 0.0
2018-Mar-10 06:27N 40°49' E 014°07'0 0.0
2018-Mar-10 06:00N 40°49' E 014°07'0 0.0
2018-Mar-10 05:30N 40°49' E 014°07'0 0.0
2018-Mar-10 05:00N 40°49' E 014°07'0 0.0
2018-Mar-10 04:30N 40°49' E 014°07'0 0.0
2018-Mar-10 04:00N 40°49' E 014°07'0 0.0
2018-Mar-10 03:30N 40°49' E 014°07'0 0.0
2018-Mar-10 03:00N 40°49' E 014°07'0 0.0
2018-Mar-10 02:30N 40°49' E 014°07'0 0.0
2018-Mar-10 01:57N 40°49' E 014°07'0 0.0
2018-Mar-10 01:30N 40°49' E 014°07'0 0.0
2018-Mar-10 01:00N 40°49' E 014°07'0 0.0
2018-Mar-10 00:27N 40°49' E 014°07'0 0.0
2018-Mar-10 00:00N 40°49' E 014°07'0 0.0
2018-Mar-09 23:30N 40°49' E 014°07'0 0.0
2018-Mar-09 23:00N 40°49' E 014°07'0 0.0
2018-Mar-09 22:30N 40°49' E 014°07'0 0.0
2018-Mar-09 21:57N 40°49' E 014°07'0 0.0
2018-Mar-09 21:30N 40°49' E 014°07'0 0.0
2018-Mar-09 20:57N 40°49' E 014°07'0 0.0
2018-Mar-09 20:30N 40°49' E 014°07'0 0.0
2018-Mar-09 20:00N 40°49' E 014°07'0 0.0
2018-Mar-09 18:12N 40°49' E 014°07'0 0.0
2018-Mar-09 16:15N 40°49' E 014°07'0 0.0
2018-Mar-09 15:57N 40°49' E 014°07'0 0.0
2018-Mar-09 15:30N 40°49' E 014°07'0 0.0
2018-Mar-09 15:00N 40°49' E 014°07'0 0.0
2018-Mar-09 14:21N 40°49' E 014°07'0 0.0
2018-Mar-09 14:00N 40°49' E 014°07'0 0.0
2018-Mar-09 13:12N 40°49' E 014°07'0 0.0
2018-Mar-09 12:57N 40°49' E 014°07'0 0.0
2018-Mar-09 12:18N 40°49' E 014°07'0 0.0
2018-Mar-09 12:00N 40°49' E 014°07'0 0.0
2018-Mar-09 10:33N 40°49' E 014°07'0 0.0
2018-Mar-09 10:30N 40°49' E 014°07'0 0.0
2018-Mar-09 09:48N 40°49' E 014°07'0 0.0
2018-Mar-09 09:24N 40°49' E 014°07'0 0.0
2018-Mar-09 09:00N 40°49' E 014°07'0 0.0
2018-Mar-09 08:12N 40°49' E 014°07'0 0.0
2018-Mar-09 07:57N 40°49' E 014°07'0 0.0
2018-Mar-09 07:24N 40°49' E 014°07'0 0.0
2018-Mar-09 06:51N 40°49' E 014°07'0 0.0
2018-Mar-09 06:30N 40°49' E 014°07'0 0.0
2018-Mar-09 06:00N 40°49' E 014°07'0 0.0
2018-Mar-09 05:24N 40°49' E 014°07'0 0.0
2018-Mar-09 05:00N 40°49' E 014°07'0 0.0
2018-Mar-09 04:30N 40°49' E 014°07'0 0.0
2018-Mar-09 03:57N 40°49' E 014°07'0 0.0
2018-Mar-09 03:30N 40°49' E 014°07'0 0.0
2018-Mar-09 03:00N 40°49' E 014°07'0 0.0
2018-Mar-09 02:27N 40°49' E 014°07'0 0.0
2018-Mar-09 01:57N 40°49' E 014°07'0 0.0
2018-Mar-09 01:27N 40°49' E 014°07'0 0.0
2018-Mar-09 01:00N 40°49' E 014°07'0 0.0
2018-Mar-09 00:30N 40°49' E 014°07'0 0.0
2018-Mar-09 00:00N 40°49' E 014°07'0 0.0
2018-Mar-08 23:29N 40°49' E 014°07'0 0.0
2018-Mar-08 22:59N 40°49' E 014°07'0 0.0
2018-Mar-08 22:29N 40°49' E 014°07'0 0.0
2018-Mar-08 21:59N 40°49' E 014°07'0 0.0
2018-Mar-08 21:29N 40°49' E 014°07'0 0.0
2018-Mar-08 20:59N 40°49' E 014°07'0 0.0
2018-Mar-08 20:23N 40°49' E 014°07'0 0.0
2018-Mar-07 05:34N 40°49' E 014°07'0 0.0
2018-Mar-07 05:22N 40°49' E 014°07'0 0.0
2018-Mar-07 04:52N 40°49' E 014°07'0 0.0
2018-Mar-06 23:37N 40°49' E 014°07'0 0.0
2018-Mar-06 23:28N 40°49' E 014°07'0 0.0
2018-Mar-06 22:55N 40°49' E 014°07'0 0.0
2018-Mar-06 21:52N 40°49' E 014°07'0 0.0
2018-Mar-06 21:22N 40°49' E 014°07'0 0.0
2018-Mar-06 20:58N 40°49' E 014°07'0 0.0
2018-Mar-06 20:28N 40°49' E 014°07'0 0.0
2018-Mar-06 19:46N 40°49' E 014°07'0 0.0
2018-Mar-06 19:28N 40°49' E 014°07'0 0.0
2018-Mar-06 18:58N 40°49' E 014°07'0 0.0
2018-Mar-06 16:28N 40°49' E 014°07'0 0.0
2018-Mar-06 15:55N 40°49' E 014°07'0 0.0
2018-Mar-06 15:22N 40°49' E 014°07'0 0.0
2018-Mar-06 14:58N 40°49' E 014°07'0 0.0
2018-Mar-06 14:28N 40°49' E 014°07'0 0.0
2018-Mar-06 13:37N 40°49' E 014°07'0 0.0
2018-Mar-06 13:28N 40°49' E 014°07'0 0.0
2018-Mar-06 07:04N 40°49' E 014°07'0 0.0
2018-Mar-06 06:49N 40°49' E 014°07'0 0.0
2018-Mar-06 06:28N 40°49' E 014°07'0 0.0
2018-Mar-06 05:58N 40°49' E 014°07'0 0.0
2018-Mar-06 04:43N 40°49' E 014°07'0 0.0
2018-Mar-06 03:34N 40°49' E 014°07'0 0.1
2018-Mar-06 03:31N 40°49' E 014°07'0 0.0
2018-Mar-06 02:58N 40°49' E 014°07'0 0.0
2018-Mar-05 14:51N 40°49' E 014°07'0 0.0
2018-Mar-05 14:21N 40°49' E 014°07'0 0.0
2018-Mar-05 13:51N 40°49' E 014°07'0 0.0
2018-Mar-05 13:24N 40°49' E 014°07'0 0.0
2018-Mar-05 12:39N 40°49' E 014°07'0 0.0
2018-Mar-05 11:48N 40°49' E 014°07'0 0.0
2018-Mar-05 11:21N 40°49' E 014°07'0 0.0
2018-Mar-04 22:03N 40°49' E 014°07'0 0.1
2018-Mar-04 22:00N 40°49' E 014°07'0 0.0
2018-Mar-04 21:24N 40°49' E 014°07'0 0.0
2018-Mar-04 21:00N 40°49' E 014°07'0 0.0
2018-Mar-04 20:27N 40°49' E 014°07'0 0.0
2018-Mar-04 20:00N 40°49' E 014°07'0 0.0
2018-Mar-04 17:45N 40°49' E 014°07'0 0.0
2018-Mar-04 17:06N 40°49' E 014°07'0 0.0
2018-Mar-04 16:36N 40°49' E 014°07'0 0.0
2018-Mar-04 13:17N 40°49' E 014°07'0 0.0
2018-Mar-04 07:23N 40°49' E 014°07'0 0.0
2018-Mar-04 06:53N 40°49' E 014°07'0 0.0
2018-Mar-04 06:26N 40°49' E 014°07'0 0.0
2018-Mar-04 05:59N 40°49' E 014°07'0 0.0
2018-Mar-04 05:29N 40°49' E 014°07'0 0.0
2018-Mar-04 04:59N 40°49' E 014°07'0 0.0
2018-Mar-04 04:26N 40°49' E 014°07'0 0.0
2018-Mar-04 03:59N 40°49' E 014°07'0 0.0
2018-Mar-04 03:29N 40°49' E 014°07'0 0.0
2018-Mar-04 02:59N 40°49' E 014°07'0 0.0
2018-Mar-04 02:29N 40°49' E 014°07'0 0.0
2018-Mar-04 01:59N 40°49' E 014°07'0 0.0
2018-Mar-04 01:29N 40°49' E 014°07'0 0.0
2018-Mar-04 00:59N 40°49' E 014°07'0 0.0
2018-Mar-04 00:26N 40°49' E 014°07'0 0.0
2018-Mar-03 23:56N 40°49' E 014°07'0 0.0
2018-Mar-03 22:29N 40°49' E 014°07'0 0.0
2018-Mar-03 21:59N 40°49' E 014°07'0 0.0
2018-Mar-03 21:29N 40°49' E 014°07'0 0.0
2018-Mar-03 20:59N 40°49' E 014°07'0 0.0
2018-Mar-03 20:29N 40°49' E 014°07'0 0.0
2018-Mar-03 19:59N 40°49' E 014°07'0 0.0
2018-Mar-03 19:29N 40°49' E 014°07'0 0.0
2018-Mar-03 18:56N 40°49' E 014°07'0 0.0
2018-Mar-03 07:23N 40°49' E 014°07'0 0.0
2018-Mar-03 06:59N 40°49' E 014°07'0 0.0
2018-Mar-03 06:26N 40°49' E 014°07'0 0.0
2018-Mar-03 05:59N 40°49' E 014°07'0 0.0
2018-Mar-03 05:26N 40°49' E 014°07'0 0.0
2018-Mar-03 04:59N 40°49' E 014°07'0 0.0
2018-Mar-03 04:29N 40°49' E 014°07'0 0.0
2018-Mar-03 03:56N 40°49' E 014°07'0 0.0
2018-Mar-03 03:29N 40°49' E 014°07'0 0.0
2018-Mar-03 02:58N 40°49' E 014°07'0 0.0
2018-Mar-03 02:25N 40°49' E 014°07'0 0.0
2018-Mar-03 01:58N 40°49' E 014°07'0 0.0
2018-Mar-03 01:25N 40°49' E 014°07'0 0.0
2018-Mar-03 00:55N 40°49' E 014°07'0 0.0
2018-Mar-03 00:25N 40°49' E 014°07'0 0.0
2018-Mar-02 23:58N 40°49' E 014°07'0 0.0
2018-Mar-02 23:28N 40°49' E 014°07'0 0.0
2018-Mar-02 22:55N 40°49' E 014°07'0 0.0
2018-Mar-02 22:28N 40°49' E 014°07'0 0.0
2018-Mar-02 21:58N 40°49' E 014°07'0 0.0
2018-Mar-02 21:28N 40°49' E 014°07'0 0.0
2018-Mar-02 20:58N 40°49' E 014°07'0 0.0
2018-Mar-02 20:25N 40°49' E 014°07'0 0.0
2018-Mar-02 19:58N 40°49' E 014°07'0 0.0
2018-Mar-02 19:25N 40°49' E 014°07'0 0.0
2018-Mar-02 06:34N 40°49' E 014°07'0 0.0
2018-Mar-02 06:28N 40°49' E 014°07'0 0.0
2018-Mar-02 05:58N 40°49' E 014°07'0 0.0
2018-Mar-02 05:22N 40°49' E 014°07'0 0.0
2018-Mar-02 04:58N 40°49' E 014°07'0 0.0
2018-Mar-02 04:28N 40°49' E 014°07'0 0.0
2018-Mar-02 03:55N 40°49' E 014°07'0 0.0
2018-Mar-02 03:28N 40°49' E 014°07'0 0.0
2018-Mar-02 02:58N 40°49' E 014°07'0 0.0
2018-Mar-02 02:28N 40°49' E 014°07'0 0.0
2018-Mar-02 01:58N 40°49' E 014°07'0 0.0
2018-Mar-02 01:28N 40°49' E 014°07'0 0.0
2018-Mar-02 00:58N 40°49' E 014°07'0 0.0
2018-Mar-02 00:28N 40°49' E 014°07'0 0.0
2018-Mar-01 23:58N 40°49' E 014°07'0 0.0
2018-Mar-01 23:28N 40°49' E 014°07'0 0.0
2018-Mar-01 22:58N 40°49' E 014°07'0 0.0
2018-Mar-01 22:28N 40°49' E 014°07'0 0.0
2018-Mar-01 21:55N 40°49' E 014°07'0 0.0
2018-Mar-01 21:25N 40°49' E 014°07'0 0.0
2018-Mar-01 20:58N 40°49' E 014°07'0 0.0
2018-Mar-01 20:28N 40°49' E 014°07'0 0.0
2018-Mar-01 19:55N 40°49' E 014°07'0 0.0
2018-Mar-01 19:19N 40°49' E 014°07'0 0.0
2018-Mar-01 18:07N 40°49' E 014°07'0 0.0
2018-Mar-01 16:54N 40°49' E 014°07'0 0.0
2018-Mar-01 16:12N 40°49' E 014°07'0 0.0
2018-Mar-01 15:48N 40°49' E 014°07'0 0.0
2018-Mar-01 15:24N 40°49' E 014°07'0 0.0
2018-Mar-01 15:00N 40°49' E 014°07'0 0.0
2018-Mar-01 14:27N 40°49' E 014°07'  

Dump ship's entire track history